createdAt,value
2018-06-10T00:02:10.788Z,100697.94
2018-06-10T00:04:39.363Z,100698.72
2018-06-10T00:07:07.946Z,100697.38
2018-06-10T00:09:36.490Z,100695.84
2018-06-10T00:12:04.987Z,100692.46
2018-06-10T00:14:33.565Z,100693.48
2018-06-10T00:17:02.181Z,100691.20
2018-06-10T00:19:30.658Z,100688.67
2018-06-10T00:22:00.154Z,100687.91
2018-06-10T00:24:28.722Z,100687.48
2018-06-10T00:26:57.300Z,100682.56
2018-06-10T00:29:25.951Z,100685.63
2018-06-10T00:31:54.599Z,100684.44
2018-06-10T00:34:23.219Z,100675.53
2018-06-10T00:36:51.823Z,100674.46
2018-06-10T00:39:20.400Z,100677.50
2018-06-10T00:41:48.964Z,100674.31
2018-06-10T00:44:17.507Z,100666.34
2018-06-10T00:46:46.196Z,100669.32
2018-06-10T00:49:14.716Z,100673.13
2018-06-10T00:51:43.245Z,100676.83
2018-06-10T00:54:11.866Z,100676.34
2018-06-10T00:56:49.859Z,100665.54
2018-06-10T00:59:18.392Z,100665.96
2018-06-10T01:01:46.901Z,100661.05
2018-06-10T01:04:15.416Z,100664.37
2018-06-10T01:06:44.068Z,100664.89
2018-06-10T01:09:12.652Z,100669.12
2018-06-10T01:11:41.169Z,100669.92
2018-06-10T01:14:09.863Z,100669.88
2018-06-10T01:16:38.433Z,100669.98
2018-06-10T01:19:06.910Z,100663.66
2018-06-10T01:21:35.424Z,100668.84
2018-06-10T01:24:03.904Z,100674.92
2018-06-10T01:26:37.786Z,100667.97
2018-06-10T01:29:06.313Z,100666.03
2018-06-10T01:31:34.823Z,100668.48
2018-06-10T01:34:03.356Z,100670.52
2018-06-10T01:36:31.890Z,100668.19
2018-06-10T01:39:00.469Z,100669.49
2018-06-10T01:41:29.080Z,100667.11
2018-06-10T01:43:57.674Z,100668.09
2018-06-10T01:46:26.290Z,100666.37
2018-06-10T01:48:54.837Z,100663.19
2018-06-10T01:51:23.358Z,100665.91
2018-06-10T01:53:51.790Z,100662.73
2018-06-10T01:56:20.290Z,100661.02
2018-06-10T01:58:48.828Z,100664.31
2018-06-10T02:01:17.328Z,100659.65
2018-06-10T02:03:45.798Z,100664.33
2018-06-10T02:06:14.433Z,100670.47
2018-06-10T02:08:43.018Z,100665.00
2018-06-10T02:11:11.585Z,100668.08
2018-06-10T02:13:40.133Z,100668.20
2018-06-10T02:16:08.769Z,100653.38
2018-06-10T02:18:37.299Z,100651.52
2018-06-10T02:21:05.729Z,100649.20
2018-06-10T02:23:34.227Z,100656.06
2018-06-10T02:26:02.877Z,100648.70
2018-06-10T02:28:31.392Z,100650.73
2018-06-10T02:30:59.964Z,100651.03
2018-06-10T02:33:28.529Z,100648.15
2018-06-10T02:35:57.045Z,100643.48
2018-06-10T02:38:26.074Z,100641.92
2018-06-10T02:40:54.508Z,100643.80
2018-06-10T02:43:23.039Z,100642.52
2018-06-10T02:45:52.445Z,100638.22
2018-06-10T02:48:21.588Z,100633.11
2018-06-10T02:50:50.122Z,100635.63
2018-06-10T02:53:18.691Z,100635.91
2018-06-10T02:55:49.859Z,100636.27
2018-06-10T02:58:18.432Z,100628.45
2018-06-10T03:00:46.975Z,100631.68
2018-06-10T03:03:16.795Z,100628.28
2018-06-10T03:05:45.568Z,100625.78
2018-06-10T03:08:14.135Z,100626.50
2018-06-10T03:10:43.564Z,100632.97
2018-06-10T03:13:12.532Z,100633.63
2018-06-10T03:15:41.120Z,100637.66
2018-06-10T03:18:09.606Z,100635.86
2018-06-10T03:20:38.675Z,100642.27
2018-06-10T03:23:07.274Z,100641.77
2018-06-10T03:25:35.835Z,100640.33
2018-06-10T03:28:05.352Z,100645.47
2018-06-10T03:30:35.264Z,100655.11
2018-06-10T03:33:03.995Z,100652.50
2018-06-10T03:35:32.667Z,100649.57
2018-06-10T03:38:03.810Z,100655.23
2018-06-10T03:40:32.340Z,100646.03
2018-06-10T03:43:00.808Z,100641.84
2018-06-10T03:45:31.100Z,100646.18
2018-06-10T03:47:59.836Z,100641.42
2018-06-10T03:50:28.298Z,100640.80
2018-06-10T03:52:56.809Z,100643.75
2018-06-10T03:55:27.004Z,100642.46
2018-06-10T03:57:56.411Z,100635.98
2018-06-10T04:00:24.951Z,100637.42
2018-06-10T04:02:53.448Z,100642.89
2018-06-10T04:05:22.006Z,100637.50
2018-06-10T04:07:50.511Z,100655.76
2018-06-10T04:10:18.985Z,100649.07
2018-06-10T04:12:47.440Z,100647.88
2018-06-10T04:15:15.960Z,100646.83
2018-06-10T04:17:44.497Z,100644.09
2018-06-10T04:20:13.058Z,100647.70
2018-06-10T04:22:41.705Z,100642.61
2018-06-10T04:25:11.383Z,100649.73
2018-06-10T04:27:40.379Z,100639.95
2018-06-10T04:30:09.725Z,100641.37
2018-06-10T04:32:38.187Z,100639.53
2018-06-10T04:35:07.825Z,100642.76
2018-06-10T04:37:36.972Z,100635.92
2018-06-10T04:40:05.429Z,100633.55
2018-06-10T04:42:33.934Z,100635.62
2018-06-10T04:45:02.458Z,100634.12
2018-06-10T04:47:30.930Z,100629.09
2018-06-10T04:49:59.383Z,100632.41
2018-06-10T04:52:28.888Z,100630.11
2018-06-10T04:54:57.444Z,100629.80
2018-06-10T04:57:26.039Z,100627.29
2018-06-10T04:59:54.508Z,100637.08
2018-06-10T05:02:23.064Z,100634.56
2018-06-10T05:04:51.541Z,100632.40
2018-06-10T05:07:20.056Z,100625.91
2018-06-10T05:09:48.728Z,100625.84
2018-06-10T05:12:17.197Z,100620.16
2018-06-10T05:14:45.733Z,100627.25
2018-06-10T05:17:14.318Z,100634.13
2018-06-10T05:19:43.843Z,100632.60
2018-06-10T05:22:12.295Z,100630.66
2018-06-10T05:24:40.697Z,100632.79
2018-06-10T05:27:09.277Z,100630.76
2018-06-10T05:29:37.749Z,100620.14
2018-06-10T05:32:06.232Z,100617.05
2018-06-10T05:34:34.767Z,100623.00
2018-06-10T05:37:03.306Z,100624.38
2018-06-10T05:39:31.809Z,100621.05
2018-06-10T05:42:00.241Z,100622.91
2018-06-10T05:44:28.750Z,100622.38
2018-06-10T05:46:57.313Z,100623.22
2018-06-10T05:49:25.771Z,100618.22
2018-06-10T05:51:54.304Z,100621.98
2018-06-10T05:54:22.881Z,100623.80
2018-06-10T05:56:51.396Z,100621.30
2018-06-10T05:59:19.986Z,100624.66
2018-06-10T06:01:48.565Z,100620.20
2018-06-10T06:04:17.181Z,100620.23
2018-06-10T06:06:45.731Z,100610.08
2018-06-10T06:09:14.228Z,100611.85
2018-06-10T06:11:42.748Z,100617.92
2018-06-10T06:14:11.229Z,100611.67
2018-06-10T06:16:39.798Z,100618.79
2018-06-10T06:19:08.289Z,100624.80
2018-06-10T06:21:36.813Z,100623.64
2018-06-10T06:24:05.429Z,100622.23
2018-06-10T06:26:34.026Z,100611.98
2018-06-10T06:29:02.569Z,100614.76
2018-06-10T06:31:31.139Z,100620.26
2018-06-10T06:33:59.717Z,100611.67
2018-06-10T06:36:28.292Z,100609.06
2018-06-10T06:38:57.731Z,100609.67
2018-06-10T06:41:26.454Z,100606.53
2018-06-10T06:43:54.966Z,100608.17
2018-06-10T06:46:23.568Z,100604.80
2018-06-10T06:48:52.117Z,100606.39
2018-06-10T06:51:20.580Z,100609.47
2018-06-10T06:53:49.035Z,100598.54
2018-06-10T06:56:17.550Z,100592.84
2018-06-10T06:58:46.141Z,100588.88
2018-06-10T07:01:15.184Z,100588.43
2018-06-10T07:03:44.470Z,100583.68
2018-06-10T07:06:12.933Z,100584.88
2018-06-10T07:08:41.458Z,100587.96
2018-06-10T07:11:10.019Z,100582.07
2018-06-10T07:13:38.651Z,100584.16
2018-06-10T07:16:07.155Z,100583.64
2018-06-10T07:18:35.693Z,100579.05
2018-06-10T07:21:05.106Z,100579.02
2018-06-10T07:23:33.578Z,100575.88
2018-06-10T07:26:02.086Z,100581.20
2018-06-10T07:28:30.570Z,100574.58
2018-06-10T07:30:59.135Z,100573.80
2018-06-10T07:33:27.675Z,100573.55
2018-06-10T07:35:56.145Z,100577.26
2018-06-10T07:38:24.656Z,100574.13
2018-06-10T07:40:53.225Z,100568.03
2018-06-10T07:43:21.674Z,100566.26
2018-06-10T07:45:50.156Z,100568.44
2018-06-10T07:48:18.690Z,100563.05
2018-06-10T07:50:47.206Z,100567.05
2018-06-10T07:53:15.799Z,100566.52
2018-06-10T07:55:44.455Z,100562.87
2018-06-10T07:58:12.955Z,100563.36
2018-06-10T08:00:41.473Z,100553.44
2018-06-10T08:03:10.132Z,100559.30
2018-06-10T08:05:38.690Z,100557.52
2018-06-10T08:08:07.176Z,100559.41
2018-06-10T08:10:36.538Z,100558.34
2018-06-10T08:13:05.134Z,100548.18
2018-06-10T08:15:33.645Z,100551.09
2018-06-10T08:18:02.166Z,100549.63
2018-06-10T08:20:30.666Z,100547.12
2018-06-10T08:22:59.341Z,100545.45
2018-06-10T08:25:27.893Z,100547.66
2018-06-10T08:27:56.501Z,100543.62
2018-06-10T08:30:24.918Z,100535.84
2018-06-10T08:32:53.386Z,100536.31
2018-06-10T08:35:21.820Z,100535.38
2018-06-10T08:37:50.245Z,100542.48
2018-06-10T08:40:18.817Z,100537.91
2018-06-10T08:42:47.488Z,100532.11
2018-06-10T08:45:15.975Z,100537.52
2018-06-10T08:47:44.449Z,100546.38
2018-06-10T08:50:12.922Z,100546.28
2018-06-10T08:52:41.457Z,100543.14
2018-06-10T08:55:09.879Z,100537.38
2018-06-10T08:57:38.382Z,100539.23
2018-06-10T09:00:06.925Z,100535.39
2018-06-10T09:02:35.412Z,100542.23
2018-06-10T09:05:04.151Z,100534.20
2018-06-10T09:07:33.360Z,100534.75
2018-06-10T09:10:01.870Z,100532.73
2018-06-10T09:12:30.285Z,100524.10
2018-06-10T09:14:58.777Z,100525.20
2018-06-10T09:17:27.304Z,100524.66
2018-06-10T09:19:55.713Z,100528.44
2018-06-10T09:22:24.231Z,100526.12
2018-06-10T09:24:52.893Z,100522.63
2018-06-10T09:27:21.382Z,100516.81
2018-06-10T09:29:49.882Z,100516.02
2018-06-10T09:32:18.313Z,100514.77
2018-06-10T09:34:46.778Z,100514.30
2018-06-10T09:37:15.330Z,100515.59
2018-06-10T09:39:43.813Z,100503.21
2018-06-10T09:42:12.405Z,100504.17
2018-06-10T09:44:40.841Z,100497.89
2018-06-10T09:47:09.299Z,100504.16
2018-06-10T09:49:37.744Z,100503.11
2018-06-10T09:52:06.236Z,100501.02
2018-06-10T09:54:34.800Z,100498.52
2018-06-10T09:57:03.299Z,100490.34
2018-06-10T09:59:32.619Z,100492.16
2018-06-10T10:02:01.149Z,100497.69
2018-06-10T10:04:29.782Z,100503.45
2018-06-10T10:06:58.274Z,100496.73
2018-06-10T10:09:27.442Z,100489.27
2018-06-10T10:11:56.724Z,100493.50
2018-06-10T10:14:25.223Z,100488.79
2018-06-10T10:16:53.758Z,100481.83
2018-06-10T10:19:22.219Z,100473.89
2018-06-10T10:21:50.690Z,100484.10
2018-06-10T10:24:19.189Z,100479.16
2018-06-10T10:26:47.637Z,100478.82
2018-06-10T10:29:16.073Z,100465.90
2018-06-10T10:31:44.633Z,100464.16
2018-06-10T10:34:13.057Z,100463.92
2018-06-10T10:36:41.524Z,100457.31
2018-06-10T10:39:09.994Z,100462.34
2018-06-10T10:41:38.445Z,100448.66
2018-06-10T10:44:06.966Z,100447.08
2018-06-10T10:46:35.402Z,100449.60
2018-06-10T10:49:03.825Z,100451.16
2018-06-10T10:51:32.330Z,100444.91
2018-06-10T10:54:00.799Z,100435.68
2018-06-10T10:56:29.357Z,100432.73
2018-06-10T10:58:57.716Z,100432.23
2018-06-10T11:01:26.745Z,100430.42
2018-06-10T11:03:55.529Z,100425.70
2018-06-10T11:06:23.872Z,100421.80
2018-06-10T11:08:52.278Z,100419.95
2018-06-10T11:11:20.701Z,100417.02
2018-06-10T11:13:49.106Z,100417.11
2018-06-10T11:16:17.496Z,100406.53
2018-06-10T11:18:45.863Z,100399.19
2018-06-10T11:21:14.260Z,100400.27
2018-06-10T11:23:42.654Z,100396.55
2018-06-10T11:26:11.007Z,100396.65
2018-06-10T11:28:39.565Z,100389.81
2018-06-10T11:31:07.999Z,100387.12
2018-06-10T11:33:36.359Z,100384.39
2018-06-10T11:36:04.728Z,100379.75
2018-06-10T11:38:34.055Z,100377.00
2018-06-10T11:41:02.457Z,100382.97
2018-06-10T11:43:30.819Z,100361.82
2018-06-10T11:45:59.179Z,100370.62
2018-06-10T11:48:28.391Z,100367.92
2018-06-10T11:50:56.811Z,100364.84
2018-06-10T11:53:25.268Z,100378.14
2018-06-10T11:55:53.673Z,100367.25
2018-06-10T11:58:22.080Z,100371.81
2018-06-10T12:00:50.552Z,100373.84
2018-06-10T12:03:19.019Z,100384.80
2018-06-10T12:05:47.413Z,100390.69
2018-06-10T12:08:15.840Z,100395.78
2018-06-10T12:10:44.223Z,100411.89
2018-06-10T12:13:12.703Z,100408.77
2018-06-10T12:15:41.191Z,100405.82
2018-06-10T12:18:09.611Z,100398.08
2018-06-10T12:20:37.993Z,100400.40
2018-06-10T12:23:06.461Z,100403.34
2018-06-10T12:25:34.877Z,100394.71
2018-06-10T12:28:03.283Z,100401.19
2018-06-10T12:30:31.657Z,100394.14
2018-06-10T12:33:00.078Z,100395.34
2018-06-10T12:35:28.500Z,100395.52
2018-06-10T12:37:56.964Z,100383.81
2018-06-10T12:40:25.388Z,100377.88
2018-06-10T12:42:53.763Z,100382.17
2018-06-10T12:45:22.145Z,100384.55
2018-06-10T12:47:50.886Z,100381.31
2018-06-10T12:50:19.306Z,100385.86
2018-06-10T12:52:48.373Z,100382.45
2018-06-10T12:55:16.789Z,100382.86
2018-06-10T12:57:45.305Z,100381.87
2018-06-10T13:00:13.715Z,100379.58
2018-06-10T13:02:42.159Z,100375.38
2018-06-10T13:05:10.627Z,100369.72
2018-06-10T13:07:39.327Z,100369.41
2018-06-10T13:10:08.252Z,100367.29
2018-06-10T13:12:36.707Z,100373.80
2018-06-10T13:15:05.157Z,100378.36
2018-06-10T13:17:33.853Z,100381.09
2018-06-10T13:20:02.288Z,100378.64
2018-06-10T13:22:30.807Z,100377.12
2018-06-10T13:24:59.181Z,100381.77
2018-06-10T13:27:28.330Z,100386.02
2018-06-10T13:29:56.748Z,100384.35
2018-06-10T13:32:25.185Z,100389.63
2018-06-10T13:34:53.598Z,100394.91
2018-06-10T13:37:21.977Z,100392.16
2018-06-10T13:39:50.407Z,100398.64
2018-06-10T13:42:18.787Z,100398.45
2018-06-10T13:44:47.177Z,100389.16
2018-06-10T13:47:15.827Z,100394.69
2018-06-10T13:49:44.200Z,100403.20
2018-06-10T13:52:12.578Z,100409.06
2018-06-10T13:54:40.986Z,100411.67
2018-06-10T13:57:09.352Z,100412.00
2018-06-10T13:59:37.733Z,100411.86
2018-06-10T14:02:07.083Z,100407.47
2018-06-10T14:04:36.129Z,100401.30
2018-06-10T14:07:04.499Z,100399.97
2018-06-10T14:09:32.889Z,100405.66
2018-06-10T14:12:01.330Z,100404.70
2018-06-10T14:14:29.895Z,100407.63
2018-06-10T14:16:58.297Z,100403.91
2018-06-10T14:19:26.683Z,100397.20
2018-06-10T14:21:55.519Z,100394.66
2018-06-10T14:24:23.903Z,100387.06
2018-06-10T14:26:52.280Z,100378.92
2018-06-10T14:29:20.687Z,100387.91
2018-06-10T14:31:49.100Z,100390.53
2018-06-10T14:34:17.480Z,100404.06
2018-06-10T14:36:45.953Z,100402.69
2018-06-10T14:39:14.330Z,100404.83
2018-06-10T14:41:42.765Z,100411.44
2018-06-10T14:44:11.194Z,100406.28
2018-06-10T14:46:39.712Z,100419.81
2018-06-10T14:49:08.289Z,100431.37
2018-06-10T14:51:36.712Z,100441.70
2018-06-10T14:54:05.197Z,100459.97
2018-06-10T14:56:33.599Z,100461.59
2018-06-10T14:59:01.970Z,100451.92
2018-06-10T15:01:30.402Z,100444.77
2018-06-10T15:03:58.851Z,100451.52
2018-06-10T15:06:27.370Z,100458.83
2018-06-10T15:08:55.828Z,100444.11
2018-06-10T15:11:24.375Z,100444.27
2018-06-10T15:13:53.532Z,100438.11
2018-06-10T15:16:22.201Z,100437.59
2018-06-10T15:18:50.650Z,100434.33
2018-06-10T15:21:19.055Z,100438.61
2018-06-10T15:23:48.131Z,100438.78
2018-06-10T15:26:16.616Z,100437.75
2018-06-10T15:28:45.112Z,100429.84
2018-06-10T15:31:13.543Z,100436.70
2018-06-10T15:33:42.056Z,100437.17
2018-06-10T15:36:10.431Z,100436.31
2018-06-10T15:38:38.829Z,100448.30
2018-06-10T15:41:07.222Z,100441.79
2018-06-10T15:43:36.500Z,100447.48
2018-06-10T15:46:05.524Z,100450.36
2018-06-10T15:48:33.965Z,100451.75
2018-06-10T15:51:02.484Z,100443.17
2018-06-10T15:53:30.879Z,100447.28
2018-06-10T15:55:59.280Z,100445.91
2018-06-10T15:58:27.738Z,100443.16
2018-06-10T16:00:56.142Z,100446.23
2018-06-10T16:03:24.568Z,100445.23
2018-06-10T16:05:52.968Z,100448.85
2018-06-10T16:08:21.449Z,100442.98
2018-06-10T16:10:49.871Z,100435.95
2018-06-10T16:13:18.389Z,100431.86
2018-06-10T16:15:47.237Z,100431.31
2018-06-10T16:18:15.664Z,100427.86
2018-06-10T16:20:44.070Z,100423.23
2018-06-10T16:23:12.518Z,100418.97
2018-06-10T16:25:40.931Z,100417.41
2018-06-10T16:28:09.568Z,100408.32
2018-06-10T16:30:38.060Z,100402.31
2018-06-10T16:33:06.456Z,100405.42
2018-06-10T16:35:34.866Z,100407.47
2018-06-10T16:38:03.341Z,100406.44
2018-06-10T16:40:31.830Z,100404.39
2018-06-10T16:43:00.333Z,100407.47
2018-06-10T16:45:29.542Z,100400.09
2018-06-10T16:47:59.315Z,100406.45
2018-06-10T16:50:28.468Z,100400.95
2018-06-10T16:52:56.994Z,100415.72
2018-06-10T16:55:25.631Z,100414.34
2018-06-10T16:57:54.106Z,100409.20
2018-06-10T17:00:22.511Z,100407.67
2018-06-10T17:02:50.916Z,100404.73
2018-06-10T17:05:19.593Z,100414.01
2018-06-10T17:07:47.984Z,100419.50
2018-06-10T17:10:16.491Z,100427.41
2018-06-10T17:12:45.290Z,100426.02
2018-06-10T17:15:14.522Z,100430.14
2018-06-10T17:17:43.018Z,100437.67
2018-06-10T17:20:11.981Z,100439.38
2018-06-10T17:22:54.263Z,100445.72
2018-06-10T17:25:22.642Z,100448.64
2018-06-10T17:27:51.060Z,100454.31
2018-06-10T17:30:19.957Z,100456.35
2018-06-10T17:32:48.436Z,100461.66
2018-06-10T17:35:16.844Z,100468.88
2018-06-10T17:37:45.261Z,100470.91
2018-06-10T17:40:13.702Z,100470.88
2018-06-10T17:42:42.143Z,100475.86
2018-06-10T17:45:10.654Z,100479.08
2018-06-10T17:47:39.172Z,100479.44
2018-06-10T17:50:08.129Z,100481.52
2018-06-10T17:52:36.520Z,100480.48
2018-06-10T17:55:04.956Z,100476.34
2018-06-10T17:57:33.374Z,100477.22
2018-06-10T18:00:01.789Z,100477.72
2018-06-10T18:02:30.171Z,100482.19
2018-06-10T18:04:58.554Z,100479.30
2018-06-10T18:07:26.924Z,100480.15
2018-06-10T18:09:55.372Z,100478.78
2018-06-10T18:12:23.821Z,100473.08
2018-06-10T18:14:52.208Z,100468.25
2018-06-10T18:17:20.617Z,100464.58
2018-06-10T18:19:49.472Z,100465.58
2018-06-10T18:22:17.922Z,100462.84
2018-06-10T18:24:46.318Z,100462.48
2018-06-10T18:27:14.679Z,100465.56
2018-06-10T18:29:43.064Z,100462.14
2018-06-10T18:32:11.466Z,100458.70
2018-06-10T18:34:39.815Z,100461.77
2018-06-10T18:37:08.192Z,100466.22
2018-06-10T18:39:36.743Z,100466.89
2018-06-10T18:42:05.131Z,100459.88
2018-06-10T18:44:33.488Z,100463.98
2018-06-10T18:47:02.091Z,100462.95
2018-06-10T18:49:31.049Z,100460.41
2018-06-10T18:51:59.436Z,100462.77
2018-06-10T18:54:27.794Z,100473.69
2018-06-10T18:56:56.263Z,100461.30
2018-06-10T18:59:25.324Z,100459.02
2018-06-10T19:01:53.731Z,100464.36
2018-06-10T19:04:22.088Z,100467.94
2018-06-10T19:06:50.428Z,100472.56
2018-06-10T19:09:18.902Z,100476.53
2018-06-10T19:11:47.296Z,100478.18
2018-06-10T19:14:15.653Z,100485.66
2018-06-10T19:16:44.034Z,100486.00
2018-06-10T19:19:12.399Z,100486.38
2018-06-10T19:21:41.407Z,100490.55
2018-06-10T19:24:09.805Z,100489.62
2018-06-10T19:26:38.237Z,100486.89
2018-06-10T19:29:06.689Z,100495.34
2018-06-10T19:31:35.080Z,100497.91
2018-06-10T19:34:03.531Z,100501.54
2018-06-10T19:36:32.572Z,100505.70
2018-06-10T19:39:01.504Z,100502.83
2018-06-10T19:41:29.987Z,100496.08
2018-06-10T19:43:58.424Z,100495.57
2018-06-10T19:46:26.829Z,100499.89
2018-06-10T19:48:55.230Z,100498.48
2018-06-10T19:51:23.668Z,100497.93
2018-06-10T19:53:52.040Z,100499.77
2018-06-10T19:56:20.440Z,100502.76
2018-06-10T19:58:48.900Z,100502.58
2018-06-10T20:01:17.319Z,100507.19
2018-06-10T20:03:45.688Z,100508.39
2018-06-10T20:06:14.073Z,100507.44
2018-06-10T20:08:42.453Z,100503.98
2018-06-10T20:11:10.813Z,100495.47
2018-06-10T20:13:39.540Z,100504.30
2018-06-10T20:16:07.987Z,100499.21
2018-06-10T20:18:36.481Z,100496.86
2018-06-10T20:21:04.855Z,100504.63
2018-06-10T20:23:33.213Z,100506.22
2018-06-10T20:26:01.619Z,100500.12
2018-06-10T20:28:30.407Z,100499.56
2018-06-10T20:30:58.751Z,100500.93
2018-06-10T20:33:27.372Z,100502.84
2018-06-10T20:35:55.780Z,100502.28
2018-06-10T20:38:24.571Z,100506.55
2018-06-10T20:40:53.052Z,100506.19
2018-06-10T20:43:21.402Z,100512.59
2018-06-10T20:45:49.748Z,100517.30
2018-06-10T20:48:18.159Z,100514.50
2018-06-10T20:50:46.577Z,100513.36
2018-06-10T20:53:15.042Z,100512.73
2018-06-10T20:55:43.976Z,100518.70
2018-06-10T20:58:12.637Z,100518.92
2018-06-10T21:00:41.083Z,100524.70
2018-06-10T21:03:09.524Z,100531.87
2018-06-10T21:05:37.877Z,100536.55
2018-06-10T21:08:06.488Z,100537.78
2018-06-10T21:10:34.848Z,100543.25
2018-06-10T21:13:03.339Z,100545.34
2018-06-10T21:15:31.732Z,100543.95
2018-06-10T21:18:00.078Z,100545.75
2018-06-10T21:20:28.454Z,100549.50
2018-06-10T21:22:57.396Z,100558.17
2018-06-10T21:25:25.768Z,100557.59
2018-06-10T21:27:54.147Z,100558.87
2018-06-10T21:30:22.551Z,100566.64
2018-06-10T21:32:50.951Z,100562.55
2018-06-10T21:35:19.420Z,100568.01
2018-06-10T21:37:47.837Z,100565.91
2018-06-10T21:40:16.236Z,100561.66
2018-06-10T21:42:44.705Z,100560.13
2018-06-10T21:45:13.100Z,100570.42
2018-06-10T21:47:41.497Z,100567.81
2018-06-10T21:50:09.891Z,100568.16
2018-06-10T21:52:38.296Z,100570.62
2018-06-10T21:55:06.722Z,100568.91
2018-06-10T21:57:35.114Z,100559.55
2018-06-10T22:00:03.487Z,100565.27
2018-06-10T22:02:31.835Z,100567.50
2018-06-10T22:05:00.264Z,100565.55
2018-06-10T22:07:28.615Z,100565.73
2018-06-10T22:09:56.967Z,100568.17
2018-06-10T22:12:25.327Z,100568.38
2018-06-10T22:14:53.720Z,100566.66
2018-06-10T22:17:22.119Z,100567.02
2018-06-10T22:19:50.485Z,100563.22
2018-06-10T22:22:18.835Z,100572.39
2018-06-10T22:24:47.222Z,100574.41
2018-06-10T22:27:15.604Z,100576.69
2018-06-10T22:29:44.002Z,100574.23
2018-06-10T22:32:12.387Z,100585.38
2018-06-10T22:34:40.758Z,100587.37
2018-06-10T22:37:09.165Z,100591.96
2018-06-10T22:39:37.651Z,100587.90
2018-06-10T22:42:06.241Z,100588.43
2018-06-10T22:44:34.611Z,100591.57
2018-06-10T22:47:02.991Z,100597.05
2018-06-10T22:49:31.369Z,100594.73
2018-06-10T22:51:59.797Z,100589.28
2018-06-10T22:54:39.970Z,100586.94
2018-06-10T22:57:08.899Z,100584.74
2018-06-10T22:59:37.274Z,100580.03
2018-06-10T23:02:07.668Z,100582.25
2018-06-10T23:04:36.060Z,100580.70
2018-06-10T23:07:04.491Z,100583.19
2018-06-10T23:09:32.854Z,100589.14
2018-06-10T23:12:01.251Z,100587.78
2018-06-10T23:14:29.607Z,100587.69
2018-06-10T23:16:57.981Z,100593.14
2018-06-10T23:19:26.332Z,100593.91
2018-06-10T23:21:54.724Z,100591.58
2018-06-10T23:24:23.073Z,100588.11
2018-06-10T23:26:51.468Z,100585.53
2018-06-10T23:29:19.836Z,100585.59
2018-06-10T23:31:48.192Z,100584.49
2018-06-10T23:34:16.569Z,100581.30
2018-06-10T23:36:45.256Z,100584.59
2018-06-10T23:39:13.780Z,100582.52
2018-06-10T23:41:42.377Z,100587.61
2018-06-10T23:44:10.744Z,100588.97
2018-06-10T23:46:39.142Z,100588.22
2018-06-10T23:49:07.671Z,100590.14
2018-06-10T23:51:36.095Z,100593.47
2018-06-10T23:54:04.651Z,100585.84
2018-06-10T23:56:33.024Z,100586.32
2018-06-10T23:59:01.379Z,100573.45
